Aérodrome :
LOGIN :

S'inscrire | Disclaimer

   EN    FR    IT 

 










Légende :    VFR   VFR Marginal   IFR   IFR Intensif   IFR Très Intensif
Visi : 
Plafond : 
>= 8 km
>= 3000ft
5 à 8 km
1000 à 3000 ft
1500m à 5 km
500 à 1000 ft
800 à 1500m
200 à 500 ft
< 800m
< 200 ft
Symboles :   Orages  Brouillard  Fortes neiges  Fortes précipitations  Vent > 20 kt
SIGMETs :   Divers  Orages  Givrage  Turbulence  Onde Orograph.  Cendres Volcan.






- Altitude de l'aérodrome : 56 ft
- Code IATA : ILY


EGPI - Islay

DERNIER METAR :
  • 200350Z AUTO 13007KT 9999 BKN029/// 10/10 Q1020

METARs EXPIRÉS :
  • 200320Z AUTO 13006KT 9999 FEW034/// 09/09 Q1020
  • 200250Z AUTO 13006KT 9999 NCD 09/09 Q1020
  • 200220Z AUTO 12007KT 9999 NCD 10/10 Q1020
  • 200150Z AUTO 13006KT 9999 NCD 09/09 Q1020
  • 200120Z AUTO 12007KT 9999 NCD 10/09 Q1020

TAF TAF EGPI
Valide du 20 à 03h jusqu'au 20 à 12h UTC


200158Z 2003/2012 15005KT 9999 SCT030
BECMG 2006/2009 22010KT
TEMPO 2006/2012 BKN014
PROB30
TEMPO 2010/2012 8000 -RA BKN009



MET'MAP, la Météo Aéronautique d'un coup d'oeil ! - Copyright ORBIFLY Décembre 2007 - Disclaimer

ORBIFLY MET'MAP TEAM :

Programmation & Développement : Alexandra Zaïnal
Sur une idée originale de : Baudouin d'Aumeries
Assistance à la programmation : Marc-Olivier Méhu
Soutien technique & logistique : Manuel Goepfert

Contact : metmap@orbifly.com




SOURCES & CREDITS :

   NOAA